EBOS/OST METAR and TAF weather

Enter ICAO airport designator
Station Type Date Time Source
EBOS METAR 2022/11/30 17:50 UTC NOAA

EBOS 301750Z 23002KT 2000 BR FEW002 05/05 Q1026 TEMPO 1400 BR


Station Type Date Time Source
EBOS Decoded METAR 2022/11/30 17:50 UTC NOAA

Oostende Airport , Belgium (EBOS) 51-12N 002-52E 5M
Nov 30, 2022 - 12:50 PM EST / 2022.11.30 1750 UTC
Wind: from the SW (230 degrees) at 2 MPH (2 KT):0
Visibility: 1 mile(s):0
Sky conditions: mostly clear
Weather: mist
Temperature: 41 F (5 C)
Dew Point: 41 F (5 C)
Relative Humidity: 100%
Pressure (altimeter): 30.30 in. Hg (1026 hPa)
ob: EBOS 301750Z 23002KT 2000 BR FEW002 05/05 Q1026 TEMPO 1400 BR
cycle: 18

Station Type Date Time Source
EBOS TAF 2022/11/30 18:27 UTC NOAA

TAF EBOS 301700Z 3018/0124 VRB03KT 3000 BR FEW005 SCT020 PROB40
TEMPO 3018/0106 0300 FG VV001

Example: see airport list